createdAt,value
2023-03-16T00:00:09.724Z,84.10
2023-03-16T00:02:36.340Z,82.70
2023-03-16T00:05:02.951Z,84.20
2023-03-16T00:07:29.548Z,84.50
2023-03-16T00:09:56.369Z,84.90
2023-03-16T00:12:22.977Z,84.20
2023-03-16T00:14:49.718Z,86.60
2023-03-16T00:17:20.891Z,86.50
2023-03-16T00:19:49.074Z,84.70
2023-03-16T00:22:16.057Z,83.20
2023-03-16T00:24:45.880Z,83.00
2023-03-16T00:27:15.910Z,84.10
2023-03-16T00:29:48.960Z,85.00
2023-03-16T00:32:19.851Z,85.60
2023-03-16T00:34:46.932Z,86.60
2023-03-16T00:37:15.393Z,86.60
2023-03-16T00:39:42.961Z,85.80
2023-03-16T00:42:10.865Z,83.70
2023-03-16T00:44:37.727Z,83.20
2023-03-16T00:47:05.025Z,84.30
2023-03-16T00:49:34.780Z,85.20
2023-03-16T00:52:02.185Z,84.50
2023-03-16T00:54:29.317Z,82.70
2023-03-16T00:56:55.914Z,83.10
2023-03-16T00:59:22.520Z,82.70
2023-03-16T01:01:49.056Z,82.50
2023-03-16T01:04:15.611Z,84.50
2023-03-16T01:06:42.135Z,85.20
2023-03-16T01:09:09.614Z,85.30
2023-03-16T01:11:36.325Z,83.80
2023-03-16T01:14:03.710Z,82.30
2023-03-16T01:16:30.297Z,82.30
2023-03-16T01:18:57.604Z,82.30
2023-03-16T01:21:24.169Z,83.00
2023-03-16T01:23:51.001Z,81.70
2023-03-16T01:26:18.617Z,83.70
2023-03-16T01:28:45.178Z,85.20
2023-03-16T01:31:14.210Z,84.80
2023-03-16T01:33:41.186Z,86.20
2023-03-16T01:36:09.267Z,87.30
2023-03-16T01:38:36.063Z,86.80
2023-03-16T01:41:03.658Z,87.60
2023-03-16T01:43:31.687Z,87.10
2023-03-16T01:46:09.641Z,86.90
2023-03-16T01:48:41.091Z,86.30
2023-03-16T01:51:13.756Z,85.40
2023-03-16T01:53:41.653Z,83.90
2023-03-16T01:56:09.865Z,83.80
2023-03-16T01:58:37.204Z,83.30
2023-03-16T02:01:04.475Z,83.20
2023-03-16T02:03:34.923Z,85.10
2023-03-16T02:06:08.302Z,86.20
2023-03-16T02:08:37.341Z,86.20
2023-03-16T02:11:04.794Z,86.20
2023-03-16T02:13:36.640Z,86.70
2023-03-16T02:16:05.468Z,86.20
2023-03-16T02:18:32.588Z,86.20
2023-03-16T02:21:22.240Z,86.10
2023-03-16T02:23:50.674Z,84.60
2023-03-16T02:26:36.044Z,84.10
2023-03-16T02:29:02.596Z,83.20
2023-03-16T02:31:29.566Z,82.10
2023-03-16T02:33:56.497Z,81.10
2023-03-16T02:36:23.176Z,78.80
2023-03-16T02:38:49.753Z,78.20
2023-03-16T02:41:18.314Z,79.00
2023-03-16T02:43:52.060Z,82.50
2023-03-16T02:46:20.183Z,84.90
2023-03-16T02:48:46.726Z,86.00
2023-03-16T02:51:13.456Z,86.00
2023-03-16T02:53:40.067Z,86.00
2023-03-16T02:56:06.863Z,86.00
2023-03-16T02:58:33.397Z,86.00
2023-03-16T03:01:00.063Z,86.00
2023-03-16T03:03:26.739Z,86.00
2023-03-16T03:05:53.291Z,86.00
2023-03-16T03:08:22.774Z,86.00
2023-03-16T03:10:49.658Z,86.00
2023-03-16T03:13:16.294Z,86.00
2023-03-16T03:15:42.900Z,86.30
2023-03-16T03:18:09.595Z,86.00
2023-03-16T03:20:36.334Z,87.60
2023-03-16T03:23:03.143Z,87.30
2023-03-16T03:25:29.769Z,87.00
2023-03-16T03:27:56.524Z,86.60
2023-03-16T03:30:24.479Z,86.00
2023-03-16T03:32:52.549Z,86.00
2023-03-16T03:35:19.175Z,85.70
2023-03-16T03:37:45.801Z,83.00
2023-03-16T03:40:13.964Z,82.00
2023-03-16T03:42:41.064Z,83.10
2023-03-16T03:45:08.029Z,82.70
2023-03-16T03:47:34.742Z,83.20
2023-03-16T03:50:01.348Z,83.70
2023-03-16T03:52:28.408Z,82.80
2023-03-16T03:54:54.983Z,83.50
2023-03-16T03:57:21.994Z,84.20
2023-03-16T03:59:48.899Z,83.10
2023-03-16T04:02:15.654Z,81.90
2023-03-16T04:04:42.685Z,81.90
2023-03-16T04:07:09.260Z,80.70
2023-03-16T04:09:36.282Z,81.90
2023-03-16T04:12:04.779Z,81.90
2023-03-16T04:14:31.802Z,80.90
2023-03-16T04:16:58.449Z,80.90
2023-03-16T04:19:25.007Z,80.20
2023-03-16T04:21:51.782Z,80.30
2023-03-16T04:24:18.526Z,80.50
2023-03-16T04:26:45.529Z,81.60
2023-03-16T04:29:18.044Z,81.70
2023-03-16T04:31:45.024Z,81.60
2023-03-16T04:34:12.093Z,81.60
2023-03-16T04:36:39.011Z,82.80
2023-03-16T04:39:05.740Z,82.40
2023-03-16T04:41:32.737Z,82.10
2023-03-16T04:43:59.325Z,81.40
2023-03-16T04:46:26.830Z,81.20
2023-03-16T04:48:53.795Z,81.30
2023-03-16T04:51:21.447Z,81.40
2023-03-16T04:53:48.118Z,81.60
2023-03-16T04:56:19.629Z,81.70
2023-03-16T04:58:47.252Z,81.60
2023-03-16T05:01:14.306Z,81.60
2023-03-16T05:03:40.986Z,81.60
2023-03-16T05:06:07.588Z,80.40
2023-03-16T05:08:34.181Z,81.50
2023-03-16T05:11:00.771Z,81.60
2023-03-16T05:13:27.395Z,81.60
2023-03-16T05:15:54.162Z,81.60
2023-03-16T05:18:21.752Z,81.60
2023-03-16T05:20:52.202Z,81.00
2023-03-16T05:23:19.364Z,80.40
2023-03-16T05:25:47.289Z,80.60
2023-03-16T05:28:14.981Z,80.00
2023-03-16T05:30:42.217Z,78.90
2023-03-16T05:33:09.226Z,79.80
2023-03-16T05:35:35.908Z,80.50
2023-03-16T05:38:02.724Z,81.30
2023-03-16T05:40:29.790Z,81.00
2023-03-16T05:42:57.056Z,81.50
2023-03-16T05:45:24.323Z,81.60
2023-03-16T05:47:50.939Z,81.60
2023-03-16T05:50:17.808Z,80.80
2023-03-16T05:52:44.604Z,80.30
2023-03-16T05:55:11.905Z,79.80
2023-03-16T05:57:38.479Z,79.20
2023-03-16T06:00:14.558Z,78.80
2023-03-16T06:02:41.919Z,78.10
2023-03-16T06:05:08.808Z,72.80
2023-03-16T06:07:35.480Z,68.90
2023-03-16T06:10:02.787Z,66.30
2023-03-16T06:12:29.416Z,63.00
2023-03-16T06:14:56.064Z,62.30
2023-03-16T06:17:22.609Z,62.00
2023-03-16T06:19:49.163Z,55.50
2023-03-16T06:22:15.768Z,53.40
2023-03-16T06:24:42.452Z,50.00
2023-03-16T06:27:09.541Z,46.90
2023-03-16T06:29:36.179Z,45.00
2023-03-16T06:32:02.778Z,43.10
2023-03-16T06:34:29.338Z,36.60
2023-03-16T06:36:55.887Z,33.10
2023-03-16T06:39:22.617Z,35.10
2023-03-16T06:41:49.172Z,33.50
2023-03-16T06:44:15.784Z,32.10
2023-03-16T06:46:42.331Z,32.10
2023-03-16T06:49:08.929Z,29.30
2023-03-16T06:51:35.706Z,27.60
2023-03-16T06:54:02.297Z,27.50
2023-03-16T06:56:29.011Z,25.90
2023-03-16T06:58:55.647Z,27.10
2023-03-16T07:01:23.049Z,28.70
2023-03-16T07:03:49.817Z,28.20
2023-03-16T07:06:16.944Z,25.50
2023-03-16T07:08:43.530Z,25.00
2023-03-16T07:11:10.096Z,24.60
2023-03-16T07:13:36.911Z,20.00
2023-03-16T07:16:05.037Z,21.50
2023-03-16T07:18:31.799Z,21.40
2023-03-16T07:20:58.604Z,20.80
2023-03-16T07:23:25.440Z,21.80
2023-03-16T07:25:52.663Z,16.70
2023-03-16T07:28:19.622Z,16.80
2023-03-16T07:31:02.507Z,16.90
2023-03-16T07:33:32.150Z,15.70
2023-03-16T07:35:59.190Z,12.40
2023-03-16T07:38:25.827Z,12.60
2023-03-16T07:40:52.418Z,12.90
2023-03-16T07:43:19.300Z,10.30
2023-03-16T07:45:49.985Z,3.90
2023-03-16T07:48:17.076Z,4.10
2023-03-16T07:50:43.890Z,1.00
2023-03-16T07:53:10.658Z,1.00
2023-03-16T07:55:38.878Z,1.00
2023-03-16T07:58:06.158Z,1.00
2023-03-16T08:00:33.419Z,1.00
2023-03-16T08:03:00.030Z,1.00
2023-03-16T08:05:27.891Z,1.00
2023-03-16T08:07:56.060Z,1.00
2023-03-16T08:10:23.096Z,1.00
2023-03-16T08:12:49.736Z,1.00
2023-03-16T08:15:17.182Z,1.00
2023-03-16T08:17:43.741Z,1.00
2023-03-16T08:20:16.666Z,1.00
2023-03-16T08:22:46.189Z,1.00
2023-03-16T08:25:13.332Z,1.00
2023-03-16T08:27:40.287Z,1.00
2023-03-16T08:30:08.247Z,1.00
2023-03-16T08:32:34.963Z,1.00
2023-03-16T08:35:01.649Z,1.00
2023-03-16T08:37:28.249Z,1.00
2023-03-16T08:39:54.800Z,1.00
2023-03-16T08:42:22.261Z,1.00
2023-03-16T08:44:48.790Z,1.00
2023-03-16T08:47:16.090Z,1.00
2023-03-16T08:49:42.734Z,1.00
2023-03-16T08:52:10.425Z,1.00
2023-03-16T08:54:37.204Z,1.00
2023-03-16T08:57:04.328Z,1.00
2023-03-16T08:59:31.234Z,1.00
2023-03-16T09:01:58.701Z,1.00
2023-03-16T09:04:25.402Z,1.00
2023-03-16T09:07:05.719Z,1.00
2023-03-16T09:09:35.508Z,1.00
2023-03-16T09:12:02.354Z,1.00
2023-03-16T09:14:29.085Z,1.00
2023-03-16T09:16:56.618Z,1.00
2023-03-16T09:19:23.209Z,1.00
2023-03-16T09:21:49.754Z,1.00
2023-03-16T09:24:16.298Z,1.00
2023-03-16T09:26:43.919Z,1.00
2023-03-16T09:29:10.682Z,1.00
2023-03-16T09:31:37.535Z,1.00
2023-03-16T09:34:04.874Z,1.00
2023-03-16T09:36:31.423Z,1.00
2023-03-16T09:38:58.004Z,1.00
2023-03-16T09:41:40.251Z,1.00
2023-03-16T09:44:07.190Z,1.00
2023-03-16T09:46:39.825Z,1.00
2023-03-16T09:49:06.362Z,1.00
2023-03-16T09:51:45.549Z,1.00
2023-03-16T09:54:32.731Z,1.00
2023-03-16T09:57:00.518Z,1.00
2023-03-16T09:59:28.510Z,1.00
2023-03-16T10:02:05.948Z,1.00
2023-03-16T10:04:52.180Z,1.00
2023-03-16T10:07:38.686Z,1.00
2023-03-16T10:10:28.624Z,1.00
2023-03-16T10:12:59.152Z,1.00
2023-03-16T10:15:27.373Z,1.00
2023-03-16T10:18:13.465Z,1.00
2023-03-16T10:20:41.969Z,1.00
2023-03-16T10:23:20.696Z,1.00
2023-03-16T10:25:48.502Z,1.00
2023-03-16T10:28:16.486Z,1.00
2023-03-16T10:30:43.989Z,1.00
2023-03-16T10:33:31.444Z,1.00
2023-03-16T10:36:02.539Z,1.00
2023-03-16T10:38:33.007Z,1.00
2023-03-16T10:40:59.902Z,1.00
2023-03-16T10:43:26.542Z,1.00
2023-03-16T10:45:57.854Z,1.00
2023-03-16T10:48:26.582Z,1.00
2023-03-16T10:50:57.447Z,1.00
2023-03-16T10:53:29.962Z,1.00
2023-03-16T10:55:58.709Z,1.00
2023-03-16T10:58:33.675Z,1.00
2023-03-16T11:01:00.392Z,1.00
2023-03-16T11:03:28.868Z,1.00
2023-03-16T11:06:02.788Z,1.00
2023-03-16T11:08:33.866Z,1.00
2023-03-16T11:11:02.615Z,1.00
2023-03-16T11:13:34.397Z,1.00
2023-03-16T11:16:19.823Z,1.00
2023-03-16T11:18:49.478Z,1.00
2023-03-16T11:21:36.367Z,1.00
2023-03-16T11:24:04.190Z,1.00
2023-03-16T11:26:40.830Z,1.00
2023-03-16T11:29:13.259Z,1.00
2023-03-16T11:31:49.335Z,1.00
2023-03-16T11:34:17.889Z,1.00
2023-03-16T11:36:49.705Z,1.00
2023-03-16T11:39:16.499Z,1.00
2023-03-16T11:42:06.147Z,1.00
2023-03-16T11:44:34.729Z,1.00
2023-03-16T11:47:17.010Z,1.00
2023-03-16T11:49:44.486Z,1.00
2023-03-16T11:52:26.560Z,1.00
2023-03-16T11:55:25.563Z,1.00
2023-03-16T11:58:08.128Z,1.00
2023-03-16T12:00:48.825Z,1.00
2023-03-16T12:03:20.043Z,1.00
2023-03-16T12:06:13.567Z,1.00
2023-03-16T12:08:57.522Z,1.00
2023-03-16T12:11:28.726Z,1.00
2023-03-16T12:14:16.937Z,1.00
2023-03-16T12:17:01.028Z,1.00
2023-03-16T12:19:33.677Z,1.00
2023-03-16T12:22:04.217Z,1.00
2023-03-16T12:24:34.565Z,1.00
2023-03-16T12:27:01.408Z,1.00
2023-03-16T12:29:51.778Z,1.00
2023-03-16T12:32:22.355Z,1.00
2023-03-16T12:34:53.575Z,1.00
2023-03-16T12:37:41.433Z,1.00
2023-03-16T12:40:09.170Z,1.00
2023-03-16T12:42:54.866Z,1.00
2023-03-16T12:45:33.496Z,1.00
2023-03-16T12:48:00.048Z,1.00
2023-03-16T12:50:27.244Z,1.00
2023-03-16T12:52:54.277Z,1.00
2023-03-16T12:55:24.971Z,1.00
2023-03-16T12:57:58.547Z,1.00
2023-03-16T13:00:34.695Z,1.00
2023-03-16T13:03:02.305Z,1.00
2023-03-16T13:05:36.009Z,1.00
2023-03-16T13:08:08.001Z,1.00
2023-03-16T13:10:34.594Z,1.00
2023-03-16T13:13:15.147Z,1.00
2023-03-16T13:15:45.083Z,1.00
2023-03-16T13:18:14.905Z,1.00
2023-03-16T13:20:55.764Z,1.00
2023-03-16T13:23:27.463Z,1.00
2023-03-16T13:26:03.143Z,1.00
2023-03-16T13:28:31.617Z,1.00
2023-03-16T13:30:58.458Z,1.00
2023-03-16T13:33:27.168Z,1.00
2023-03-16T13:35:56.006Z,1.00
2023-03-16T13:38:25.782Z,1.00
2023-03-16T13:40:53.141Z,1.00
2023-03-16T13:43:22.895Z,1.00
2023-03-16T13:45:49.750Z,1.00
2023-03-16T13:48:16.921Z,1.00
2023-03-16T13:50:44.542Z,1.00
2023-03-16T13:53:14.692Z,1.00
2023-03-16T13:55:44.107Z,1.00
2023-03-16T13:58:20.624Z,1.00
2023-03-16T14:00:47.769Z,1.00
2023-03-16T14:03:16.282Z,1.00
2023-03-16T14:05:43.348Z,1.00
2023-03-16T14:08:15.617Z,1.00
2023-03-16T14:10:43.605Z,1.00
2023-03-16T14:13:22.721Z,1.00
2023-03-16T14:15:50.132Z,1.00
2023-03-16T14:18:22.394Z,1.00
2023-03-16T14:20:51.692Z,1.00
2023-03-16T14:23:19.400Z,1.00
2023-03-16T14:25:47.376Z,1.00
2023-03-16T14:28:15.758Z,1.00
2023-03-16T14:30:52.657Z,1.00
2023-03-16T14:33:29.922Z,1.00
2023-03-16T14:35:57.847Z,1.00
2023-03-16T14:38:29.228Z,1.00
2023-03-16T14:40:57.545Z,1.00
2023-03-16T14:43:28.734Z,1.00
2023-03-16T14:45:55.563Z,1.00
2023-03-16T14:48:22.226Z,1.00
2023-03-16T14:50:54.472Z,1.00
2023-03-16T14:53:21.434Z,1.00
2023-03-16T14:55:48.016Z,1.00
2023-03-16T14:58:14.562Z,1.00
2023-03-16T15:00:52.385Z,1.00
2023-03-16T15:03:21.278Z,1.00
2023-03-16T15:05:49.538Z,1.00
2023-03-16T15:08:17.749Z,1.00
2023-03-16T15:10:44.978Z,1.00
2023-03-16T15:13:16.135Z,1.00
2023-03-16T15:15:42.828Z,1.00
2023-03-16T15:18:09.671Z,1.00
2023-03-16T15:20:39.890Z,1.00
2023-03-16T15:23:06.579Z,1.00
2023-03-16T15:25:36.455Z,1.00
2023-03-16T15:28:05.797Z,1.00
2023-03-16T15:30:32.459Z,1.00
2023-03-16T15:32:59.028Z,1.00
2023-03-16T15:35:25.875Z,1.00
2023-03-16T15:37:53.632Z,1.00
2023-03-16T15:40:22.227Z,1.00
2023-03-16T15:42:49.399Z,1.00
2023-03-16T15:45:20.745Z,1.00
2023-03-16T15:47:50.974Z,1.00
2023-03-16T15:50:18.579Z,1.00
2023-03-16T15:52:47.117Z,1.00
2023-03-16T15:55:16.148Z,1.00
2023-03-16T15:57:42.817Z,1.00
2023-03-16T16:00:18.243Z,1.00
2023-03-16T16:02:44.834Z,1.00
2023-03-16T16:05:11.484Z,1.00
2023-03-16T16:07:38.206Z,1.00
2023-03-16T16:10:05.104Z,1.00
2023-03-16T16:12:32.530Z,1.00
2023-03-16T16:14:59.166Z,1.00
2023-03-16T16:17:43.949Z,1.00
2023-03-16T16:20:28.350Z,1.00
2023-03-16T16:22:55.662Z,1.00
2023-03-16T16:25:23.262Z,1.00
2023-03-16T16:27:50.914Z,1.00
2023-03-16T16:30:27.855Z,1.00
2023-03-16T16:32:56.905Z,1.00
2023-03-16T16:35:26.109Z,1.00
2023-03-16T16:37:52.821Z,1.00
2023-03-16T16:40:21.862Z,1.00
2023-03-16T16:42:49.376Z,1.00
2023-03-16T16:45:25.501Z,1.00
2023-03-16T16:47:53.580Z,1.00
2023-03-16T16:50:21.999Z,1.00
2023-03-16T16:52:49.942Z,1.00
2023-03-16T16:55:16.544Z,1.00
2023-03-16T16:57:43.595Z,1.00
2023-03-16T17:00:18.253Z,1.00
2023-03-16T17:02:46.221Z,1.00
2023-03-16T17:05:14.363Z,1.00
2023-03-16T17:07:40.935Z,1.00
2023-03-16T17:10:07.902Z,1.00
2023-03-16T17:12:35.562Z,1.00
2023-03-16T17:15:02.128Z,1.00
2023-03-16T17:17:28.723Z,1.00
2023-03-16T17:19:55.314Z,1.00
2023-03-16T17:22:24.408Z,1.00
2023-03-16T17:24:51.765Z,1.00
2023-03-16T17:27:22.065Z,1.00
2023-03-16T17:29:48.699Z,1.00
2023-03-16T17:32:19.732Z,1.00
2023-03-16T17:34:46.309Z,1.00
2023-03-16T17:37:15.023Z,1.00
2023-03-16T17:39:41.670Z,1.00
2023-03-16T17:42:13.037Z,1.00
2023-03-16T17:44:43.948Z,1.00
2023-03-16T17:47:13.376Z,1.00
2023-03-16T17:49:40.713Z,1.00
2023-03-16T17:52:15.236Z,1.00
2023-03-16T17:54:42.224Z,32.00
2023-03-16T17:57:13.293Z,16.00
2023-03-16T17:59:40.145Z,1.00
2023-03-16T18:02:25.669Z,1.00
2023-03-16T18:04:52.275Z,1.00
2023-03-16T18:07:19.448Z,1.00
2023-03-16T18:09:45.991Z,1.00
2023-03-16T18:12:12.661Z,1.00
2023-03-16T18:14:39.718Z,1.00
2023-03-16T18:17:15.717Z,1.00
2023-03-16T18:19:43.411Z,1.00
2023-03-16T18:22:15.712Z,1.00
2023-03-16T18:24:42.993Z,1.00
2023-03-16T18:27:10.134Z,1.00
2023-03-16T18:29:36.701Z,1.00
2023-03-16T18:32:03.797Z,1.00
2023-03-16T18:34:32.403Z,1.00
2023-03-16T18:37:04.090Z,1.00
2023-03-16T18:39:30.823Z,1.00
2023-03-16T18:41:57.838Z,1.00
2023-03-16T18:44:26.187Z,1.00
2023-03-16T18:46:57.425Z,1.00
2023-03-16T18:49:29.481Z,1.00
2023-03-16T18:51:56.200Z,1.00
2023-03-16T18:54:27.094Z,1.00
2023-03-16T18:56:58.836Z,1.00
2023-03-16T18:59:25.766Z,1.00
2023-03-16T19:01:53.034Z,1.00
2023-03-16T19:04:21.620Z,1.00
2023-03-16T19:06:48.934Z,1.00
2023-03-16T19:09:18.517Z,1.00
2023-03-16T19:11:45.179Z,1.00
2023-03-16T19:14:26.602Z,1.00
2023-03-16T19:16:53.942Z,1.00
2023-03-16T19:19:24.203Z,1.00
2023-03-16T19:21:55.171Z,1.00
2023-03-16T19:24:23.815Z,1.00
2023-03-16T19:26:50.398Z,1.00
2023-03-16T19:29:17.709Z,1.00
2023-03-16T19:31:44.424Z,1.00
2023-03-16T19:34:14.753Z,1.00
2023-03-16T19:36:41.743Z,1.00
2023-03-16T19:39:08.417Z,1.00
2023-03-16T19:41:37.044Z,1.00
2023-03-16T19:44:25.227Z,1.00
2023-03-16T19:46:52.253Z,1.00
2023-03-16T19:49:20.974Z,1.00
2023-03-16T19:51:48.349Z,1.00
2023-03-16T19:54:25.655Z,1.00
2023-03-16T19:56:53.017Z,1.00
2023-03-16T19:59:20.301Z,1.00
2023-03-16T20:01:47.502Z,1.00
2023-03-16T20:04:17.720Z,1.00
2023-03-16T20:06:44.301Z,1.00
2023-03-16T20:09:11.453Z,1.00
2023-03-16T20:11:38.051Z,1.00
2023-03-16T20:14:05.301Z,1.00
2023-03-16T20:16:33.569Z,1.00
2023-03-16T20:19:01.814Z,1.00
2023-03-16T20:21:28.728Z,1.00
2023-03-16T20:23:55.403Z,1.00
2023-03-16T20:26:23.587Z,1.00
2023-03-16T20:28:50.933Z,1.00
2023-03-16T20:31:27.738Z,1.00
2023-03-16T20:33:54.639Z,1.00
2023-03-16T20:36:21.945Z,1.00
2023-03-16T20:38:48.728Z,1.00
2023-03-16T20:41:32.718Z,1.00
2023-03-16T20:44:00.542Z,1.00
2023-03-16T20:46:28.816Z,1.00
2023-03-16T20:48:55.786Z,1.00
2023-03-16T20:51:22.394Z,1.00
2023-03-16T20:53:49.269Z,1.00
2023-03-16T20:56:20.711Z,1.00
2023-03-16T20:58:49.725Z,1.00
2023-03-16T21:01:18.331Z,1.00
2023-03-16T21:03:48.958Z,1.00
2023-03-16T21:06:23.400Z,1.00
2023-03-16T21:08:51.261Z,1.00
2023-03-16T21:11:25.101Z,1.00
2023-03-16T21:13:53.097Z,1.00
2023-03-16T21:16:20.783Z,1.00
2023-03-16T21:18:48.369Z,1.00
2023-03-16T21:21:16.464Z,1.00
2023-03-16T21:23:43.717Z,1.00
2023-03-16T21:26:30.601Z,1.00
2023-03-16T21:28:58.856Z,1.00
2023-03-16T21:31:26.182Z,1.00
2023-03-16T21:33:53.914Z,1.00
2023-03-16T21:36:22.428Z,1.00
2023-03-16T21:38:49.907Z,1.00
2023-03-16T21:41:17.376Z,1.00
2023-03-16T21:43:44.602Z,1.00
2023-03-16T21:46:14.281Z,1.00
2023-03-16T21:48:41.601Z,1.00
2023-03-16T21:51:16.159Z,1.00
2023-03-16T21:53:43.222Z,1.00
2023-03-16T21:56:15.487Z,1.00
2023-03-16T21:58:42.828Z,1.00
2023-03-16T22:01:23.500Z,1.00
2023-03-16T22:03:54.024Z,1.00
2023-03-16T22:06:21.572Z,1.10
2023-03-16T22:08:49.180Z,1.00
2023-03-16T22:11:17.075Z,1.00
2023-03-16T22:13:43.706Z,1.00
2023-03-16T22:16:15.838Z,1.00
2023-03-16T22:18:43.181Z,1.30
2023-03-16T22:21:25.466Z,1.40
2023-03-16T22:23:52.272Z,1.70
2023-03-16T22:26:20.567Z,2.00
2023-03-16T22:28:48.131Z,1.60
2023-03-16T22:31:16.493Z,2.10
2023-03-16T22:33:43.647Z,2.00
2023-03-16T22:36:11.855Z,2.70
2023-03-16T22:38:39.653Z,2.10
2023-03-16T22:41:06.702Z,2.40
2023-03-16T22:43:35.650Z,2.40
2023-03-16T22:46:02.365Z,2.30
2023-03-16T22:48:29.995Z,2.30
2023-03-16T22:50:58.683Z,2.40
2023-03-16T22:53:35.786Z,3.10
2023-03-16T22:56:02.805Z,3.00
2023-03-16T22:58:33.839Z,3.00
2023-03-16T23:01:02.079Z,2.30
2023-03-16T23:03:29.103Z,2.60
2023-03-16T23:05:55.770Z,3.00
2023-03-16T23:08:23.445Z,3.80
2023-03-16T23:10:50.938Z,4.60
2023-03-16T23:13:19.323Z,5.00
2023-03-16T23:15:47.314Z,7.00
2023-03-16T23:18:24.350Z,7.10
2023-03-16T23:20:51.510Z,7.00
2023-03-16T23:23:18.428Z,6.90
2023-03-16T23:25:46.086Z,6.90
2023-03-16T23:28:17.316Z,6.80
2023-03-16T23:30:44.113Z,6.80
2023-03-16T23:33:12.945Z,6.80
2023-03-16T23:35:39.959Z,6.80
2023-03-16T23:38:06.751Z,6.80
2023-03-16T23:40:35.833Z,5.60
2023-03-16T23:43:02.424Z,5.60
2023-03-16T23:45:33.512Z,5.00
2023-03-16T23:48:02.433Z,6.80
2023-03-16T23:50:31.390Z,6.90
2023-03-16T23:52:58.475Z,5.30
2023-03-16T23:55:25.322Z,4.90
2023-03-16T23:57:52.058Z,3.90
